Time;durP1;ratioP1;P1;durP2;ratioP2;P2;SDS_P1;SDS_P2;PMS_P1;PMS_P2;Temp;Humidity;BMP_temperature;BMP_pressure;BME280_temperature;BME280_humidity;BME280_pressure;Samples;Min_cycle;Max_cycle;Signal;HPM_P1;HPM_P2
2023/03/22 00:00:16;;;;;;;16.50;13.33;;;9.90;99.90;;;;;;5114327;28;20207;-71
2023/03/22 00:02:46;;;;;;;20.37;13.50;;;9.90;99.90;;;;;;5113973;28;20692;-71
2023/03/22 00:05:15;;;;;;;16.90;12.80;;;9.90;99.90;;;;;;5114225;28;20289;-71
2023/03/22 00:07:43;;;;;;;16.97;12.53;;;9.90;99.90;;;;;;5114058;28;20204;-71
2023/03/22 00:10:12;;;;;;;17.13;13.50;;;9.80;99.90;;;;;;5097518;28;20232;-73
2023/03/22 00:12:41;;;;;;;19.77;13.70;;;9.90;99.90;;;;;;5093830;28;20279;-73
2023/03/22 00:15:10;;;;;;;17.97;13.30;;;9.90;99.90;;;;;;5093619;28;20224;-72
2023/03/22 00:17:40;;;;;;;18.33;14.47;;;9.90;99.90;;;;;;5093363;28;20691;-72
2023/03/22 00:20:11;;;;;;;19.40;13.73;;;10.00;99.90;;;;;;5093346;28;20207;-72
2023/03/22 00:22:42;;;;;;;19.60;14.07;;;9.90;99.90;;;;;;5093368;28;20254;-71
2023/03/22 00:25:12;;;;;;;16.87;13.57;;;10.00;99.90;;;;;;5093389;28;20215;-71
2023/03/22 00:27:40;;;;;;;18.37;14.63;;;10.00;99.90;;;;;;5093458;28;20210;-72
2023/03/22 00:30:11;;;;;;;18.83;14.37;;;10.00;99.90;;;;;;5075332;28;20203;-70
2023/03/22 00:32:41;;;;;;;21.67;15.90;;;10.00;99.90;;;;;;5093205;28;20692;-70
2023/03/22 00:35:12;;;;;;;22.20;14.63;;;10.00;99.90;;;;;;5092876;28;20575;-71
2023/03/22 00:37:40;;;;;;;18.60;15.37;;;10.00;99.90;;;;;;5092874;28;20213;-69
2023/03/22 00:40:12;;;;;;;20.90;15.50;;;10.00;99.90;;;;;;5074598;28;20222;-71
2023/03/22 00:42:41;;;;;;;21.47;14.13;;;10.00;99.90;;;;;;5075133;28;20200;-68
2023/03/22 00:45:11;;;;;;;20.63;15.80;;;10.10;99.90;;;;;;5093206;28;20705;-68
2023/03/22 00:47:43;;;;;;;20.80;15.17;;;10.10;99.90;;;;;;5092970;28;20217;-68
2023/03/22 00:50:14;;;;;;;20.87;16.43;;;10.10;99.90;;;;;;5092933;28;20192;-67
2023/03/22 00:52:42;;;;;;;19.87;15.20;;;10.10;99.90;;;;;;5092850;28;20650;-67
2023/03/22 00:55:11;;;;;;;23.10;15.87;;;10.10;99.90;;;;;;5074520;28;20227;-66
2023/03/22 00:57:40;;;;;;;23.73;16.13;;;10.00;99.90;;;;;;5092831;28;20666;-68
2023/03/22 01:00:14;;;;;;;24.53;16.80;;;10.00;99.90;;;;;;5074587;28;20281;-68
2023/03/22 01:02:45;;;;;;;21.87;16.07;;;10.10;99.90;;;;;;5074301;28;20652;-67
2023/03/22 01:05:20;;;;;;;22.60;16.93;;;10.10;99.90;;;;;;5074476;28;20211;-67
2023/03/22 01:07:50;;;;;;;22.47;16.57;;;10.00;99.90;;;;;;5074461;28;20627;-67
2023/03/22 01:10:19;;;;;;;21.53;16.87;;;10.10;99.90;;;;;;5092711;28;20219;-66
2023/03/22 01:12:48;;;;;;;24.93;16.63;;;10.20;99.90;;;;;;5074480;28;20717;-67
2023/03/22 01:15:17;;;;;;;24.00;17.40;;;10.30;99.90;;;;;;5074054;28;20269;-68
2023/03/22 01:17:45;;;;;;;23.80;18.73;;;10.20;99.90;;;;;;5074313;28;20208;-68
2023/03/22 01:20:14;;;;;;;27.63;18.77;;;10.30;99.90;;;;;;5092432;28;20242;-68
2023/03/22 01:22:44;;;;;;;25.67;18.50;;;10.30;99.90;;;;;;5074232;28;20218;-68
2023/03/22 01:25:14;;;;;;;23.63;18.07;;;10.30;99.90;;;;;;5092482;28;20202;-68
2023/03/22 01:27:42;;;;;;;25.77;18.93;;;10.30;99.90;;;;;;5074154;28;20684;-67
2023/03/22 01:30:12;;;;;;;21.43;17.23;;;10.20;99.90;;;;;;5092365;28;20194;-68
2023/03/22 01:32:41;;;;;;;22.00;17.40;;;10.30;99.90;;;;;;5092430;28;20234;-68
2023/03/22 01:35:10;;;;;;;24.07;17.30;;;10.20;99.90;;;;;;5073836;28;20781;-67
2023/03/22 01:37:40;;;;;;;20.80;17.40;;;10.30;99.90;;;;;;5073926;28;20622;-68
2023/03/22 01:40:13;;;;;;;25.60;18.47;;;10.30;99.90;;;;;;5073801;28;20214;-68
2023/03/22 01:42:42;;;;;;;25.47;17.77;;;10.30;99.90;;;;;;5073985;28;20199;-68
2023/03/22 01:45:39;;;;;;;27.17;19.10;;;10.30;99.90;;;;;;5107128;28;20748;-67
2023/03/22 01:48:32;;;;;;;28.50;19.40;;;10.10;99.90;;;;;;5073551;28;20209;-68
2023/03/22 01:51:07;;;;;;;25.37;17.67;;;10.10;99.90;;;;;;5025488;28;20625;-68
2023/03/22 01:53:48;;;;;;;25.20;17.77;;;10.30;99.90;;;;;;4993406;28;20346;-67
2023/03/22 01:56:23;;;;;;;24.10;17.67;;;10.40;99.90;;;;;;4993284;28;20708;-68
2023/03/22 01:58:54;;;;;;;22.87;18.17;;;10.40;99.90;;;;;;4993420;28;20214;-67
2023/03/22 02:01:30;;;;;;;23.37;16.17;;;10.50;99.90;;;;;;4993493;28;20250;-67
2023/03/22 02:04:07;;;;;;;22.13;17.53;;;10.50;99.90;;;;;;4993118;28;20267;-67
2023/03/22 02:06:37;;;;;;;26.37;17.77;;;10.40;99.90;;;;;;4993443;28;20208;-67
2023/03/22 02:09:13;;;;;;;22.93;17.80;;;10.50;99.90;;;;;;4993322;28;20320;-67
2023/03/22 02:11:46;;;;;;;23.93;17.50;;;10.60;99.90;;;;;;5009959;28;20202;-67
2023/03/22 02:14:50;;;;;;;23.70;16.83;;;10.50;99.90;;;;;;4993271;28;20293;-68
2023/03/22 02:18:05;;;;;;;24.27;17.07;;;10.60;99.90;;;;;;4991299;28;20210;-67
2023/03/22 02:21:21;;;;;;;22.63;18.87;;;10.60;99.90;;;;;;4992878;28;20298;-66
2023/03/22 02:24:22;;;;;;;25.63;18.03;;;10.40;99.90;;;;;;4951373;29;20629;-67
2023/03/22 02:27:28;;;;;;;28.33;19.80;;;10.30;99.90;;;;;;4935505;28;20227;-68
2023/03/22 02:30:15;;;;;;;27.37;18.43;;;10.30;99.90;;;;;;4996331;28;20233;-67
2023/03/22 02:33:01;;;;;;;25.97;19.23;;;10.30;99.90;;;;;;5009707;28;20213;-68
2023/03/22 02:35:50;;;;;;;28.27;20.83;;;10.30;99.90;;;;;;5012392;28;20707;-68
2023/03/22 02:38:56;;;;;;;29.10;20.07;;;10.20;99.90;;;;;;5029451;28;20228;-68
2023/03/22 02:41:38;;;;;;;26.23;19.70;;;10.10;99.90;;;;;;5009373;28;20753;-68
2023/03/22 02:44:17;;;;;;;26.97;20.37;;;10.20;99.90;;;;;;5009595;28;20286;-67
2023/03/22 02:46:50;;;;;;;30.43;21.33;;;10.10;99.90;;;;;;5009137;28;20206;-67
2023/03/22 02:49:23;;;;;;;28.60;21.13;;;10.10;99.90;;;;;;5009397;28;20221;-67
2023/03/22 02:52:00;;;;;;;30.60;22.03;;;10.10;99.90;;;;;;4992700;28;20213;-67
2023/03/22 02:54:35;;;;;;;33.60;23.03;;;10.10;99.90;;;;;;5009339;28;20212;-68
2023/03/22 02:57:11;;;;;;;33.03;23.90;;;10.00;99.90;;;;;;5009386;28;20588;-66
2023/03/22 02:59:42;;;;;;;34.20;24.87;;;10.00;99.90;;;;;;5021494;28;20685;-67
2023/03/22 03:02:17;;;;;;;35.90;23.70;;;9.80;99.90;;;;;;5074897;28;20203;-68
2023/03/22 03:04:49;;;;;;;33.80;22.43;;;9.90;99.90;;;;;;5094523;28;20226;-67
2023/03/22 03:07:22;;;;;;;33.83;23.50;;;10.00;99.90;;;;;;5076892;28;20210;-67
2023/03/22 03:09:51;;;;;;;31.63;23.30;;;9.90;99.90;;;;;;5076823;28;20234;-67
2023/03/22 03:12:25;;;;;;;33.27;23.30;;;10.00;99.90;;;;;;5110641;28;20210;-68
2023/03/22 03:14:55;;;;;;;36.97;24.47;;;10.10;99.90;;;;;;5076574;28;20294;-68
2023/03/22 03:17:36;;;;;;;35.20;24.47;;;10.10;99.90;;;;;;5076592;28;20203;-67
2023/03/22 03:20:17;;;;;;;34.87;24.90;;;10.00;99.90;;;;;;5094618;28;20774;-67
2023/03/22 03:22:56;;;;;;;39.57;25.50;;;10.00;99.90;;;;;;5110226;28;20211;-67
2023/03/22 03:25:30;;;;;;;34.97;25.23;;;10.10;99.90;;;;;;5094588;28;20199;-67
2023/03/22 03:28:08;;;;;;;37.63;25.00;;;10.10;99.90;;;;;;5076375;28;20210;-66
2023/03/22 03:30:43;;;;;;;31.63;23.23;;;10.10;99.90;;;;;;5076341;28;20216;-67
2023/03/22 03:33:16;;;;;;;36.03;25.30;;;10.00;99.90;;;;;;5076394;28;20207;-67
2023/03/22 03:35:49;;;;;;;35.43;25.13;;;10.00;99.90;;;;;;5094274;28;20216;-67
2023/03/22 03:38:23;;;;;;;36.87;26.53;;;10.00;99.90;;;;;;5094282;28;20653;-67
2023/03/22 03:40:58;;;;;;;36.73;26.13;;;10.00;99.90;;;;;;5094231;28;20191;-67
2023/03/22 03:43:29;;;;;;;43.17;25.70;;;9.90;99.90;;;;;;5094206;28;20226;-66
2023/03/22 03:45:58;;;;;;;37.33;25.90;;;9.90;99.90;;;;;;5076013;28;20581;-67
2023/03/22 03:48:33;;;;;;;38.03;26.33;;;10.00;99.90;;;;;;5094150;28;20684;-67
2023/03/22 03:51:02;;;;;;;36.00;25.13;;;9.80;99.90;;;;;;5093877;28;20192;-67
2023/03/22 03:53:31;;;;;;;38.03;25.47;;;9.80;99.90;;;;;;5109792;28;20227;-67
2023/03/22 03:56:00;;;;;;;39.33;26.00;;;9.80;99.90;;;;;;5075822;28;20342;-66
2023/03/22 03:58:37;;;;;;;37.80;26.00;;;9.90;99.90;;;;;;5109670;28;20226;-67
2023/03/22 04:01:06;;;;;;;41.70;27.93;;;9.90;99.90;;;;;;5075736;28;20230;-66
2023/03/22 04:03:45;;;;;;;43.53;27.77;;;9.80;99.90;;;;;;5094021;28;20756;-66
2023/03/22 04:06:28;;;;;;;40.87;26.13;;;9.80;99.90;;;;;;5093798;28;20199;-67
2023/03/22 04:09:03;;;;;;;37.77;27.53;;;9.80;99.90;;;;;;5109467;28;20203;-68
2023/03/22 04:11:38;;;;;;;38.37;26.23;;;9.70;99.90;;;;;;5075594;28;20213;-68
2023/03/22 04:14:08;;;;;;;36.33;24.93;;;9.70;99.90;;;;;;5075373;28;20290;-67
2023/03/22 04:16:38;;;;;;;40.37;27.07;;;9.80;99.90;;;;;;5075414;28;20238;-67
2023/03/22 04:19:10;;;;;;;37.67;25.47;;;9.70;99.90;;;;;;5093476;28;20191;-67
2023/03/22 04:21:39;;;;;;;40.93;27.73;;;9.60;99.90;;;;;;5075213;28;20208;-67
2023/03/22 04:24:10;;;;;;;41.17;27.23;;;9.60;99.90;;;;;;5075336;28;20241;-67
